Terminal Aerodrome Forecast
Issued by NWS

Home | Current Version | Previous Version | Text Only | Print | Product List | Glossary On
Versions: 1 2 3 4 5 6 7 8 9 10 11 12
000
FTUS42 TJSJ 190520
TAFKPK
TAF
TKPK 190520Z 1906/2006 VRB04KT P6SM FEW020
     FM191400 12008KT P6SM VCSH SCT030 BKN120
     FM192300 VRB04KT P6SM FEW018 SCT030 BKN120
      AMD NOT SKED TIL 191100=

USA.gov is the U.S. government's official web portal to all federal, state and local government web resources and services.